sensor_id;sensor_type;location;lat;lon;timestamp;P1;durP1;ratioP1;P2;durP2;ratioP2
7047;SDS011;3565;53.254;10.352;2023-07-31T00:00:46;3.23;;;2.60;;
7047;SDS011;3565;53.254;10.352;2023-07-31T00:05:53;5.30;;;2.83;;
7047;SDS011;3565;53.254;10.352;2023-07-31T00:08:22;3.70;;;2.63;;
7047;SDS011;3565;53.254;10.352;2023-07-31T00:10:51;4.90;;;2.73;;
7047;SDS011;3565;53.254;10.352;2023-07-31T00:13:20;5.17;;;3.00;;
7047;SDS011;3565;53.254;10.352;2023-07-31T00:18:27;5.70;;;3.13;;
7047;SDS011;3565;53.254;10.352;2023-07-31T00:20:56;5.03;;;2.90;;
7047;SDS011;3565;53.254;10.352;2023-07-31T00:23:25;4.20;;;2.77;;
7047;SDS011;3565;53.254;10.352;2023-07-31T00:28:31;4.97;;;3.03;;
7047;SDS011;3565;53.254;10.352;2023-07-31T00:31:00;4.97;;;3.40;;
7047;SDS011;3565;53.254;10.352;2023-07-31T00:36:07;7.27;;;3.40;;
7047;SDS011;3565;53.254;10.352;2023-07-31T00:38:36;5.93;;;3.27;;
7047;SDS011;3565;53.254;10.352;2023-07-31T00:41:05;6.93;;;3.10;;
7047;SDS011;3565;53.254;10.352;2023-07-31T00:46:11;6.10;;;2.73;;
7047;SDS011;3565;53.254;10.352;2023-07-31T00:48:40;4.70;;;3.30;;
7047;SDS011;3565;53.254;10.352;2023-07-31T00:51:10;6.57;;;3.10;;
7047;SDS011;3565;53.254;10.352;2023-07-31T00:53:39;4.33;;;3.20;;
7047;SDS011;3565;53.254;10.352;2023-07-31T00:56:09;6.30;;;3.30;;
7047;SDS011;3565;53.254;10.352;2023-07-31T00:58:39;5.07;;;3.40;;
7047;SDS011;3565;53.254;10.352;2023-07-31T01:03:45;7.73;;;3.37;;
7047;SDS011;3565;53.254;10.352;2023-07-31T01:06:15;8.10;;;3.70;;
7047;SDS011;3565;53.254;10.352;2023-07-31T01:08:57;7.37;;;3.50;;
7047;SDS011;3565;53.254;10.352;2023-07-31T01:11:29;7.27;;;3.63;;
7047;SDS011;3565;53.254;10.352;2023-07-31T01:16:37;7.10;;;3.30;;
7047;SDS011;3565;53.254;10.352;2023-07-31T01:19:06;7.23;;;3.43;;
7047;SDS011;3565;53.254;10.352;2023-07-31T01:21:52;5.50;;;3.27;;
7047;SDS011;3565;53.254;10.352;2023-07-31T01:27:04;6.93;;;3.47;;
7047;SDS011;3565;53.254;10.352;2023-07-31T01:29:37;6.50;;;3.40;;
7047;SDS011;3565;53.254;10.352;2023-07-31T01:32:08;8.93;;;3.60;;
7047;SDS011;3565;53.254;10.352;2023-07-31T01:34:47;5.70;;;3.20;;
7047;SDS011;3565;53.254;10.352;2023-07-31T01:39:55;7.30;;;3.33;;
7047;SDS011;3565;53.254;10.352;2023-07-31T01:42:24;8.33;;;4.93;;
7047;SDS011;3565;53.254;10.352;2023-07-31T01:47:31;6.37;;;3.80;;
7047;SDS011;3565;53.254;10.352;2023-07-31T01:52:37;10.17;;;4.37;;
7047;SDS011;3565;53.254;10.352;2023-07-31T01:57:43;5.80;;;3.43;;
7047;SDS011;3565;53.254;10.352;2023-07-31T02:00:13;5.43;;;3.63;;
7047;SDS011;3565;53.254;10.352;2023-07-31T02:02:42;5.03;;;3.47;;
7047;SDS011;3565;53.254;10.352;2023-07-31T02:07:48;5.83;;;3.47;;
7047;SDS011;3565;53.254;10.352;2023-07-31T02:10:17;5.97;;;3.87;;
7047;SDS011;3565;53.254;10.352;2023-07-31T02:12:46;6.67;;;3.77;;
7047;SDS011;3565;53.254;10.352;2023-07-31T02:17:53;6.23;;;3.63;;
7047;SDS011;3565;53.254;10.352;2023-07-31T02:20:22;9.93;;;4.47;;
7047;SDS011;3565;53.254;10.352;2023-07-31T02:22:51;6.20;;;3.87;;
7047;SDS011;3565;53.254;10.352;2023-07-31T02:27:57;6.13;;;3.90;;
7047;SDS011;3565;53.254;10.352;2023-07-31T02:30:27;5.93;;;3.90;;
7047;SDS011;3565;53.254;10.352;2023-07-31T02:32:56;5.40;;;4.00;;
7047;SDS011;3565;53.254;10.352;2023-07-31T02:38:02;7.60;;;4.40;;
7047;SDS011;3565;53.254;10.352;2023-07-31T02:40:31;9.03;;;4.43;;
7047;SDS011;3565;53.254;10.352;2023-07-31T02:43:00;5.53;;;4.57;;
7047;SDS011;3565;53.254;10.352;2023-07-31T02:48:06;6.23;;;4.47;;
7047;SDS011;3565;53.254;10.352;2023-07-31T02:50:35;8.07;;;5.33;;
7047;SDS011;3565;53.254;10.352;2023-07-31T02:53:04;6.80;;;5.30;;
7047;SDS011;3565;53.254;10.352;2023-07-31T02:55:33;7.87;;;5.80;;
7047;SDS011;3565;53.254;10.352;2023-07-31T02:58:12;7.00;;;5.60;;
7047;SDS011;3565;53.254;10.352;2023-07-31T03:00:42;6.43;;;5.80;;
7047;SDS011;3565;53.254;10.352;2023-07-31T03:05:49;8.33;;;6.37;;
7047;SDS011;3565;53.254;10.352;2023-07-31T03:08:19;10.70;;;6.83;;
7047;SDS011;3565;53.254;10.352;2023-07-31T03:10:48;7.30;;;6.50;;
7047;SDS011;3565;53.254;10.352;2023-07-31T03:13:17;9.77;;;6.93;;
7047;SDS011;3565;53.254;10.352;2023-07-31T03:15:46;8.90;;;7.07;;
7047;SDS011;3565;53.254;10.352;2023-07-31T03:18:24;8.33;;;6.60;;
7047;SDS011;3565;53.254;10.352;2023-07-31T03:20:54;7.37;;;6.53;;
7047;SDS011;3565;53.254;10.352;2023-07-31T03:23:22;9.37;;;7.27;;
7047;SDS011;3565;53.254;10.352;2023-07-31T03:28:35;9.23;;;7.57;;
7047;SDS011;3565;53.254;10.352;2023-07-31T03:31:04;9.10;;;7.03;;
7047;SDS011;3565;53.254;10.352;2023-07-31T03:36:11;9.93;;;6.83;;
7047;SDS011;3565;53.254;10.352;2023-07-31T03:38:40;10.60;;;6.77;;
7047;SDS011;3565;53.254;10.352;2023-07-31T03:41:09;9.83;;;6.80;;
7047;SDS011;3565;53.254;10.352;2023-07-31T03:46:15;8.43;;;6.87;;
7047;SDS011;3565;53.254;10.352;2023-07-31T03:48:44;9.77;;;7.03;;
7047;SDS011;3565;53.254;10.352;2023-07-31T03:51:13;7.30;;;6.60;;
7047;SDS011;3565;53.254;10.352;2023-07-31T03:53:43;8.37;;;6.70;;
7047;SDS011;3565;53.254;10.352;2023-07-31T03:58:49;8.63;;;6.40;;
7047;SDS011;3565;53.254;10.352;2023-07-31T04:01:19;9.57;;;6.60;;
7047;SDS011;3565;53.254;10.352;2023-07-31T04:03:48;6.83;;;6.03;;
7047;SDS011;3565;53.254;10.352;2023-07-31T04:08:54;6.43;;;5.80;;
7047;SDS011;3565;53.254;10.352;2023-07-31T04:11:24;7.57;;;6.43;;
7047;SDS011;3565;53.254;10.352;2023-07-31T04:13:53;8.10;;;6.27;;
7047;SDS011;3565;53.254;10.352;2023-07-31T04:16:22;6.73;;;6.03;;
7047;SDS011;3565;53.254;10.352;2023-07-31T04:18:51;6.17;;;5.57;;
7047;SDS011;3565;53.254;10.352;2023-07-31T04:21:20;8.80;;;6.17;;
7047;SDS011;3565;53.254;10.352;2023-07-31T04:23:49;6.47;;;5.87;;
7047;SDS011;3565;53.254;10.352;2023-07-31T04:26:19;8.03;;;6.93;;
7047;SDS011;3565;53.254;10.352;2023-07-31T04:28:48;7.47;;;6.37;;
7047;SDS011;3565;53.254;10.352;2023-07-31T04:31:17;6.40;;;5.80;;
7047;SDS011;3565;53.254;10.352;2023-07-31T04:33:47;7.67;;;6.30;;
7047;SDS011;3565;53.254;10.352;2023-07-31T04:38:54;8.20;;;5.73;;
7047;SDS011;3565;53.254;10.352;2023-07-31T04:41:23;6.63;;;5.93;;
7047;SDS011;3565;53.254;10.352;2023-07-31T04:43:52;7.10;;;6.40;;
7047;SDS011;3565;53.254;10.352;2023-07-31T04:46:21;7.37;;;5.90;;
7047;SDS011;3565;53.254;10.352;2023-07-31T04:48:50;6.83;;;5.70;;
7047;SDS011;3565;53.254;10.352;2023-07-31T04:51:19;6.20;;;5.60;;
7047;SDS011;3565;53.254;10.352;2023-07-31T04:53:58;6.70;;;6.00;;
7047;SDS011;3565;53.254;10.352;2023-07-31T04:56:36;6.87;;;5.80;;
7047;SDS011;3565;53.254;10.352;2023-07-31T04:59:05;7.10;;;5.80;;
7047;SDS011;3565;53.254;10.352;2023-07-31T05:01:34;7.60;;;5.93;;
7047;SDS011;3565;53.254;10.352;2023-07-31T05:06:41;6.73;;;5.27;;
7047;SDS011;3565;53.254;10.352;2023-07-31T05:11:48;5.83;;;5.33;;
7047;SDS011;3565;53.254;10.352;2023-07-31T05:16:54;5.90;;;5.40;;
7047;SDS011;3565;53.254;10.352;2023-07-31T05:19:24;7.27;;;5.60;;
7047;SDS011;3565;53.254;10.352;2023-07-31T05:21:53;5.93;;;5.33;;
7047;SDS011;3565;53.254;10.352;2023-07-31T05:24:22;5.80;;;5.20;;
7047;SDS011;3565;53.254;10.352;2023-07-31T05:26:53;5.70;;;5.20;;
7047;SDS011;3565;53.254;10.352;2023-07-31T05:29:22;5.77;;;5.13;;
7047;SDS011;3565;53.254;10.352;2023-07-31T05:31:52;7.10;;;5.23;;
7047;SDS011;3565;53.254;10.352;2023-07-31T05:34:21;6.10;;;5.40;;
7047;SDS011;3565;53.254;10.352;2023-07-31T05:36:50;5.50;;;5.00;;
7047;SDS011;3565;53.254;10.352;2023-07-31T05:41:56;5.57;;;5.07;;
7047;SDS011;3565;53.254;10.352;2023-07-31T05:44:25;4.87;;;4.47;;
7047;SDS011;3565;53.254;10.352;2023-07-31T05:47:04;4.87;;;4.47;;
7047;SDS011;3565;53.254;10.352;2023-07-31T05:49:33;4.90;;;4.50;;
7047;SDS011;3565;53.254;10.352;2023-07-31T05:52:03;4.57;;;4.03;;
7047;SDS011;3565;53.254;10.352;2023-07-31T05:57:10;5.90;;;4.17;;
7047;SDS011;3565;53.254;10.352;2023-07-31T05:59:40;4.83;;;4.33;;
7047;SDS011;3565;53.254;10.352;2023-07-31T06:02:09;3.87;;;3.57;;
7047;SDS011;3565;53.254;10.352;2023-07-31T06:04:47;5.20;;;3.90;;
7047;SDS011;3565;53.254;10.352;2023-07-31T06:09:53;4.70;;;3.40;;
7047;SDS011;3565;53.254;10.352;2023-07-31T06:12:23;3.47;;;3.17;;
7047;SDS011;3565;53.254;10.352;2023-07-31T06:17:31;3.10;;;2.87;;
7047;SDS011;3565;53.254;10.352;2023-07-31T06:20:00;3.40;;;3.10;;
7047;SDS011;3565;53.254;10.352;2023-07-31T06:22:31;3.20;;;2.90;;
7047;SDS011;3565;53.254;10.352;2023-07-31T06:27:37;2.93;;;2.73;;
7047;SDS011;3565;53.254;10.352;2023-07-31T06:30:07;2.80;;;2.60;;
7047;SDS011;3565;53.254;10.352;2023-07-31T06:32:38;2.93;;;2.40;;
7047;SDS011;3565;53.254;10.352;2023-07-31T06:35:08;2.33;;;2.13;;
7047;SDS011;3565;53.254;10.352;2023-07-31T06:37:37;2.50;;;2.30;;
7047;SDS011;3565;53.254;10.352;2023-07-31T06:40:09;3.13;;;2.50;;
7047;SDS011;3565;53.254;10.352;2023-07-31T06:42:39;2.97;;;2.53;;
7047;SDS011;3565;53.254;10.352;2023-07-31T06:45:09;2.33;;;2.13;;
7047;SDS011;3565;53.254;10.352;2023-07-31T06:47:38;2.43;;;2.23;;
7047;SDS011;3565;53.254;10.352;2023-07-31T06:50:07;2.60;;;2.40;;
7047;SDS011;3565;53.254;10.352;2023-07-31T06:52:37;2.30;;;2.03;;
7047;SDS011;3565;53.254;10.352;2023-07-31T06:55:16;1.97;;;1.80;;
7047;SDS011;3565;53.254;10.352;2023-07-31T06:57:46;2.27;;;2.07;;
7047;SDS011;3565;53.254;10.352;2023-07-31T07:00:16;2.27;;;1.90;;
7047;SDS011;3565;53.254;10.352;2023-07-31T07:02:45;2.40;;;2.20;;
7047;SDS011;3565;53.254;10.352;2023-07-31T07:05:15;9.03;;;2.03;;
7047;SDS011;3565;53.254;10.352;2023-07-31T07:07:44;2.20;;;2.00;;
7047;SDS011;3565;53.254;10.352;2023-07-31T07:10:13;1.80;;;1.63;;
7047;SDS011;3565;53.254;10.352;2023-07-31T07:12:42;1.80;;;1.70;;
7047;SDS011;3565;53.254;10.352;2023-07-31T07:15:11;1.90;;;1.80;;
7047;SDS011;3565;53.254;10.352;2023-07-31T07:17:40;2.27;;;1.77;;
7047;SDS011;3565;53.254;10.352;2023-07-31T07:20:09;2.00;;;1.80;;
7047;SDS011;3565;53.254;10.352;2023-07-31T07:22:39;1.80;;;1.70;;
7047;SDS011;3565;53.254;10.352;2023-07-31T07:25:09;1.73;;;1.63;;
7047;SDS011;3565;53.254;10.352;2023-07-31T07:27:38;3.27;;;1.47;;
7047;SDS011;3565;53.254;10.352;2023-07-31T07:30:09;1.50;;;1.40;;
7047;SDS011;3565;53.254;10.352;2023-07-31T07:32:38;1.50;;;1.40;;
7047;SDS011;3565;53.254;10.352;2023-07-31T07:35:08;1.77;;;1.50;;
7047;SDS011;3565;53.254;10.352;2023-07-31T07:37:37;1.53;;;1.43;;
7047;SDS011;3565;53.254;10.352;2023-07-31T07:40:08;1.60;;;1.50;;
7047;SDS011;3565;53.254;10.352;2023-07-31T07:42:37;1.63;;;1.53;;
7047;SDS011;3565;53.254;10.352;2023-07-31T07:45:07;1.60;;;1.50;;
7047;SDS011;3565;53.254;10.352;2023-07-31T07:47:37;1.70;;;1.40;;
7047;SDS011;3565;53.254;10.352;2023-07-31T07:50:09;1.53;;;1.43;;
7047;SDS011;3565;53.254;10.352;2023-07-31T07:52:38;1.53;;;1.43;;
7047;SDS011;3565;53.254;10.352;2023-07-31T07:55:07;2.77;;;1.40;;
7047;SDS011;3565;53.254;10.352;2023-07-31T08:00:15;1.60;;;1.50;;
7047;SDS011;3565;53.254;10.352;2023-07-31T08:02:45;1.60;;;1.50;;
7047;SDS011;3565;53.254;10.352;2023-07-31T08:05:14;2.83;;;1.50;;
7047;SDS011;3565;53.254;10.352;2023-07-31T08:07:43;1.67;;;1.57;;
7047;SDS011;3565;53.254;10.352;2023-07-31T08:10:12;1.53;;;1.43;;
7047;SDS011;3565;53.254;10.352;2023-07-31T08:12:41;2.33;;;1.40;;
7047;SDS011;3565;53.254;10.352;2023-07-31T08:15:10;1.60;;;1.30;;
7047;SDS011;3565;53.254;10.352;2023-07-31T08:17:39;1.20;;;1.17;;
7047;SDS011;3565;53.254;10.352;2023-07-31T08:20:09;1.43;;;1.33;;
7047;SDS011;3565;53.254;10.352;2023-07-31T08:22:40;1.33;;;1.23;;
7047;SDS011;3565;53.254;10.352;2023-07-31T08:25:09;1.30;;;1.20;;
7047;SDS011;3565;53.254;10.352;2023-07-31T08:27:38;1.40;;;1.30;;
7047;SDS011;3565;53.254;10.352;2023-07-31T08:30:11;1.20;;;1.10;;
7047;SDS011;3565;53.254;10.352;2023-07-31T08:32:40;1.30;;;1.20;;
7047;SDS011;3565;53.254;10.352;2023-07-31T08:35:12;1.40;;;1.30;;
7047;SDS011;3565;53.254;10.352;2023-07-31T08:37:40;1.30;;;1.20;;
7047;SDS011;3565;53.254;10.352;2023-07-31T08:40:10;1.43;;;1.13;;
7047;SDS011;3565;53.254;10.352;2023-07-31T08:42:46;1.73;;;1.63;;
7047;SDS011;3565;53.254;10.352;2023-07-31T08:45:16;1.43;;;1.20;;
7047;SDS011;3565;53.254;10.352;2023-07-31T08:47:47;1.30;;;1.20;;
7047;SDS011;3565;53.254;10.352;2023-07-31T08:50:17;1.00;;;1.00;;
7047;SDS011;3565;53.254;10.352;2023-07-31T08:52:47;0.90;;;0.90;;
7047;SDS011;3565;53.254;10.352;2023-07-31T08:55:17;1.20;;;1.10;;
7047;SDS011;3565;53.254;10.352;2023-07-31T08:57:49;1.30;;;1.20;;
7047;SDS011;3565;53.254;10.352;2023-07-31T09:00:19;1.63;;;1.20;;
7047;SDS011;3565;53.254;10.352;2023-07-31T09:02:52;1.67;;;1.57;;
7047;SDS011;3565;53.254;10.352;2023-07-31T09:08:01;0.90;;;0.90;;
7047;SDS011;3565;53.254;10.352;2023-07-31T09:13:08;0.90;;;0.90;;
7047;SDS011;3565;53.254;10.352;2023-07-31T09:15:37;3.90;;;1.00;;
7047;SDS011;3565;53.254;10.352;2023-07-31T09:18:08;1.07;;;1.00;;
7047;SDS011;3565;53.254;10.352;2023-07-31T09:20:37;1.17;;;1.00;;
7047;SDS011;3565;53.254;10.352;2023-07-31T09:23:07;1.87;;;1.23;;
7047;SDS011;3565;53.254;10.352;2023-07-31T09:25:38;1.30;;;1.20;;
7047;SDS011;3565;53.254;10.352;2023-07-31T09:28:10;1.90;;;1.40;;
7047;SDS011;3565;53.254;10.352;2023-07-31T09:30:46;2.13;;;1.70;;
7047;SDS011;3565;53.254;10.352;2023-07-31T09:33:28;2.83;;;2.20;;
7047;SDS011;3565;53.254;10.352;2023-07-31T09:35:59;3.60;;;2.23;;
7047;SDS011;3565;53.254;10.352;2023-07-31T09:41:15;3.03;;;2.57;;
7047;SDS011;3565;53.254;10.352;2023-07-31T09:43:56;5.23;;;3.23;;
7047;SDS011;3565;53.254;10.352;2023-07-31T09:46:27;4.53;;;3.20;;
7047;SDS011;3565;53.254;10.352;2023-07-31T09:49:05;7.47;;;4.30;;
7047;SDS011;3565;53.254;10.352;2023-07-31T09:51:37;6.13;;;4.20;;
7047;SDS011;3565;53.254;10.352;2023-07-31T09:54:18;7.27;;;4.13;;
7047;SDS011;3565;53.254;10.352;2023-07-31T09:59:38;8.03;;;5.10;;
7047;SDS011;3565;53.254;10.352;2023-07-31T10:02:30;9.63;;;5.63;;
7047;SDS011;3565;53.254;10.352;2023-07-31T10:05:04;10.10;;;5.93;;
7047;SDS011;3565;53.254;10.352;2023-07-31T10:07:54;10.10;;;6.03;;
7047;SDS011;3565;53.254;10.352;2023-07-31T10:10:22;9.47;;;5.70;;
7047;SDS011;3565;53.254;10.352;2023-07-31T10:13:08;9.37;;;5.93;;
7047;SDS011;3565;53.254;10.352;2023-07-31T10:15:39;10.63;;;5.47;;
7047;SDS011;3565;53.254;10.352;2023-07-31T10:18:10;10.10;;;5.80;;
7047;SDS011;3565;53.254;10.352;2023-07-31T10:20:44;9.27;;;5.77;;
7047;SDS011;3565;53.254;10.352;2023-07-31T10:23:16;9.10;;;5.63;;
7047;SDS011;3565;53.254;10.352;2023-07-31T10:25:59;11.67;;;6.70;;
7047;SDS011;3565;53.254;10.352;2023-07-31T10:28:34;12.37;;;6.60;;
7047;SDS011;3565;53.254;10.352;2023-07-31T10:31:05;10.13;;;5.43;;
7047;SDS011;3565;53.254;10.352;2023-07-31T10:33:39;10.37;;;5.97;;
7047;SDS011;3565;53.254;10.352;2023-07-31T10:36:12;12.47;;;6.23;;
7047;SDS011;3565;53.254;10.352;2023-07-31T10:38:43;10.30;;;5.30;;
7047;SDS011;3565;53.254;10.352;2023-07-31T10:41:12;10.00;;;5.70;;
7047;SDS011;3565;53.254;10.352;2023-07-31T10:43:40;11.83;;;5.97;;
7047;SDS011;3565;53.254;10.352;2023-07-31T10:46:10;10.37;;;7.53;;
7047;SDS011;3565;53.254;10.352;2023-07-31T10:48:41;9.03;;;6.00;;
7047;SDS011;3565;53.254;10.352;2023-07-31T10:51:11;9.73;;;5.17;;
7047;SDS011;3565;53.254;10.352;2023-07-31T10:53:42;9.27;;;5.93;;
7047;SDS011;3565;53.254;10.352;2023-07-31T10:56:11;8.53;;;5.20;;
7047;SDS011;3565;53.254;10.352;2023-07-31T10:58:44;11.00;;;5.40;;
7047;SDS011;3565;53.254;10.352;2023-07-31T11:01:13;7.70;;;5.10;;
7047;SDS011;3565;53.254;10.352;2023-07-31T11:03:43;8.87;;;5.60;;
7047;SDS011;3565;53.254;10.352;2023-07-31T11:06:14;10.83;;;5.40;;
7047;SDS011;3565;53.254;10.352;2023-07-31T11:08:44;8.43;;;5.23;;
7047;SDS011;3565;53.254;10.352;2023-07-31T11:11:14;8.10;;;5.00;;
7047;SDS011;3565;53.254;10.352;2023-07-31T11:13:45;7.13;;;5.10;;
7047;SDS011;3565;53.254;10.352;2023-07-31T11:16:16;8.60;;;5.43;;
7047;SDS011;3565;53.254;10.352;2023-07-31T11:18:55;6.73;;;5.33;;
7047;SDS011;3565;53.254;10.352;2023-07-31T11:21:24;8.73;;;4.67;;
7047;SDS011;3565;53.254;10.352;2023-07-31T11:23:54;6.50;;;4.47;;
7047;SDS011;3565;53.254;10.352;2023-07-31T11:26:33;5.67;;;4.37;;
7047;SDS011;3565;53.254;10.352;2023-07-31T11:31:43;7.73;;;4.30;;
7047;SDS011;3565;53.254;10.352;2023-07-31T11:34:12;7.50;;;4.13;;
7047;SDS011;3565;53.254;10.352;2023-07-31T11:39:30;6.73;;;3.83;;
7047;SDS011;3565;53.254;10.352;2023-07-31T11:42:00;6.43;;;3.20;;
7047;SDS011;3565;53.254;10.352;2023-07-31T11:44:38;4.07;;;3.03;;
7047;SDS011;3565;53.254;10.352;2023-07-31T11:47:09;3.87;;;3.47;;
7047;SDS011;3565;53.254;10.352;2023-07-31T11:49:39;4.17;;;2.70;;
7047;SDS011;3565;53.254;10.352;2023-07-31T11:52:08;4.00;;;2.53;;
7047;SDS011;3565;53.254;10.352;2023-07-31T11:54:38;4.93;;;3.10;;
7047;SDS011;3565;53.254;10.352;2023-07-31T11:57:08;2.60;;;2.40;;
7047;SDS011;3565;53.254;10.352;2023-07-31T11:59:38;2.37;;;2.03;;
7047;SDS011;3565;53.254;10.352;2023-07-31T12:02:08;3.47;;;2.30;;
7047;SDS011;3565;53.254;10.352;2023-07-31T12:04:37;3.47;;;2.73;;
7047;SDS011;3565;53.254;10.352;2023-07-31T12:07:06;2.57;;;2.33;;
7047;SDS011;3565;53.254;10.352;2023-07-31T12:09:35;2.67;;;2.40;;
7047;SDS011;3565;53.254;10.352;2023-07-31T12:12:08;3.17;;;2.30;;
7047;SDS011;3565;53.254;10.352;2023-07-31T12:14:37;2.40;;;2.00;;
7047;SDS011;3565;53.254;10.352;2023-07-31T12:17:10;2.27;;;2.07;;
7047;SDS011;3565;53.254;10.352;2023-07-31T12:19:39;2.40;;;2.20;;
7047;SDS011;3565;53.254;10.352;2023-07-31T12:22:11;3.47;;;2.17;;
7047;SDS011;3565;53.254;10.352;2023-07-31T12:24:42;3.27;;;2.33;;
7047;SDS011;3565;53.254;10.352;2023-07-31T12:27:12;4.70;;;2.63;;
7047;SDS011;3565;53.254;10.352;2023-07-31T12:29:43;3.13;;;2.40;;
7047;SDS011;3565;53.254;10.352;2023-07-31T12:32:19;2.70;;;2.20;;
7047;SDS011;3565;53.254;10.352;2023-07-31T12:34:50;2.70;;;2.27;;
7047;SDS011;3565;53.254;10.352;2023-07-31T12:37:19;2.40;;;2.20;;
7047;SDS011;3565;53.254;10.352;2023-07-31T12:39:49;4.07;;;2.00;;
7047;SDS011;3565;53.254;10.352;2023-07-31T12:42:28;2.50;;;2.30;;
7047;SDS011;3565;53.254;10.352;2023-07-31T12:44:58;2.30;;;2.10;;
7047;SDS011;3565;53.254;10.352;2023-07-31T12:47:28;2.30;;;2.10;;
7047;SDS011;3565;53.254;10.352;2023-07-31T12:52:37;2.87;;;2.37;;
7047;SDS011;3565;53.254;10.352;2023-07-31T12:55:07;2.30;;;2.10;;
7047;SDS011;3565;53.254;10.352;2023-07-31T12:57:37;3.10;;;2.00;;
7047;SDS011;3565;53.254;10.352;2023-07-31T13:00:09;2.50;;;2.30;;
7047;SDS011;3565;53.254;10.352;2023-07-31T13:05:18;2.50;;;2.30;;
7047;SDS011;3565;53.254;10.352;2023-07-31T13:07:47;2.43;;;2.23;;
7047;SDS011;3565;53.254;10.352;2023-07-31T13:10:16;3.17;;;2.20;;
7047;SDS011;3565;53.254;10.352;2023-07-31T13:12:45;2.47;;;2.27;;
7047;SDS011;3565;53.254;10.352;2023-07-31T13:15:15;2.40;;;2.20;;
7047;SDS011;3565;53.254;10.352;2023-07-31T13:17:48;3.33;;;2.20;;
7047;SDS011;3565;53.254;10.352;2023-07-31T13:20:19;2.80;;;2.43;;
7047;SDS011;3565;53.254;10.352;2023-07-31T13:22:50;3.07;;;2.63;;
7047;SDS011;3565;53.254;10.352;2023-07-31T13:25:22;2.97;;;2.33;;
7047;SDS011;3565;53.254;10.352;2023-07-31T13:28:01;2.40;;;2.17;;
7047;SDS011;3565;53.254;10.352;2023-07-31T13:30:33;2.00;;;1.90;;
7047;SDS011;3565;53.254;10.352;2023-07-31T13:33:02;2.63;;;1.90;;
7047;SDS011;3565;53.254;10.352;2023-07-31T13:35:33;2.37;;;2.10;;
7047;SDS011;3565;53.254;10.352;2023-07-31T13:38:06;2.47;;;2.27;;
7047;SDS011;3565;53.254;10.352;2023-07-31T13:40:35;1.83;;;1.70;;
7047;SDS011;3565;53.254;10.352;2023-07-31T13:43:05;1.63;;;1.53;;
7047;SDS011;3565;53.254;10.352;2023-07-31T13:45:39;2.37;;;2.00;;
7047;SDS011;3565;53.254;10.352;2023-07-31T13:48:10;1.70;;;1.60;;
7047;SDS011;3565;53.254;10.352;2023-07-31T13:50:40;1.70;;;1.60;;
7047;SDS011;3565;53.254;10.352;2023-07-31T13:53:12;1.97;;;1.60;;
7047;SDS011;3565;53.254;10.352;2023-07-31T13:55:41;1.90;;;1.80;;
7047;SDS011;3565;53.254;10.352;2023-07-31T13:58:12;1.83;;;1.73;;
7047;SDS011;3565;53.254;10.352;2023-07-31T14:03:23;1.80;;;1.70;;
7047;SDS011;3565;53.254;10.352;2023-07-31T14:08:32;2.10;;;2.00;;
7047;SDS011;3565;53.254;10.352;2023-07-31T14:11:05;1.80;;;1.70;;
7047;SDS011;3565;53.254;10.352;2023-07-31T14:13:37;2.47;;;2.10;;
7047;SDS011;3565;53.254;10.352;2023-07-31T14:16:08;1.80;;;1.70;;
7047;SDS011;3565;53.254;10.352;2023-07-31T14:18:40;1.80;;;1.70;;
7047;SDS011;3565;53.254;10.352;2023-07-31T14:21:12;3.80;;;1.87;;
7047;SDS011;3565;53.254;10.352;2023-07-31T14:23:42;2.10;;;2.00;;
7047;SDS011;3565;53.254;10.352;2023-07-31T14:26:16;2.40;;;2.20;;
7047;SDS011;3565;53.254;10.352;2023-07-31T14:28:45;2.37;;;2.17;;
7047;SDS011;3565;53.254;10.352;2023-07-31T14:31:15;2.50;;;2.30;;
7047;SDS011;3565;53.254;10.352;2023-07-31T14:33:48;3.83;;;2.57;;
7047;SDS011;3565;53.254;10.352;2023-07-31T14:39:01;3.10;;;2.80;;
7047;SDS011;3565;53.254;10.352;2023-07-31T14:41:30;2.80;;;2.60;;
7047;SDS011;3565;53.254;10.352;2023-07-31T14:44:00;3.00;;;2.80;;
7047;SDS011;3565;53.254;10.352;2023-07-31T14:46:30;3.17;;;2.97;;
7047;SDS011;3565;53.254;10.352;2023-07-31T14:49:02;3.10;;;2.80;;
7047;SDS011;3565;53.254;10.352;2023-07-31T14:51:32;2.90;;;2.70;;
7047;SDS011;3565;53.254;10.352;2023-07-31T14:54:04;3.87;;;2.97;;
7047;SDS011;3565;53.254;10.352;2023-07-31T14:56:34;3.00;;;2.73;;
7047;SDS011;3565;53.254;10.352;2023-07-31T15:01:40;3.30;;;3.00;;
7047;SDS011;3565;53.254;10.352;2023-07-31T15:04:12;4.17;;;2.90;;
7047;SDS011;3565;53.254;10.352;2023-07-31T15:06:42;3.23;;;2.77;;
7047;SDS011;3565;53.254;10.352;2023-07-31T15:11:50;4.83;;;3.70;;
7047;SDS011;3565;53.254;10.352;2023-07-31T15:14:25;3.73;;;3.43;;
7047;SDS011;3565;53.254;10.352;2023-07-31T15:19:33;3.80;;;3.50;;
7047;SDS011;3565;53.254;10.352;2023-07-31T15:22:06;4.20;;;3.80;;
7047;SDS011;3565;53.254;10.352;2023-07-31T15:24:37;4.80;;;4.30;;
7047;SDS011;3565;53.254;10.352;2023-07-31T15:27:08;4.87;;;4.00;;
7047;SDS011;3565;53.254;10.352;2023-07-31T15:32:15;4.47;;;4.07;;
7047;SDS011;3565;53.254;10.352;2023-07-31T15:34:45;5.83;;;4.30;;
7047;SDS011;3565;53.254;10.352;2023-07-31T15:37:14;4.83;;;4.40;;
7047;SDS011;3565;53.254;10.352;2023-07-31T15:39:44;4.73;;;4.17;;
7047;SDS011;3565;53.254;10.352;2023-07-31T15:44:51;5.17;;;4.67;;
7047;SDS011;3565;53.254;10.352;2023-07-31T15:47:20;4.60;;;4.20;;
7047;SDS011;3565;53.254;10.352;2023-07-31T15:49:49;4.80;;;4.40;;
7047;SDS011;3565;53.254;10.352;2023-07-31T15:52:18;5.07;;;4.60;;
7047;SDS011;3565;53.254;10.352;2023-07-31T15:54:47;4.77;;;4.37;;
7047;SDS011;3565;53.254;10.352;2023-07-31T15:59:53;5.17;;;4.07;;
7047;SDS011;3565;53.254;10.352;2023-07-31T16:02:22;4.60;;;4.20;;
7047;SDS011;3565;53.254;10.352;2023-07-31T16:04:51;4.93;;;3.97;;
7047;SDS011;3565;53.254;10.352;2023-07-31T16:07:20;5.53;;;4.20;;
7047;SDS011;3565;53.254;10.352;2023-07-31T16:09:50;4.57;;;4.07;;
7047;SDS011;3565;53.254;10.352;2023-07-31T16:12:19;4.60;;;4.20;;
7047;SDS011;3565;53.254;10.352;2023-07-31T16:14:49;4.47;;;3.70;;
7047;SDS011;3565;53.254;10.352;2023-07-31T16:19:55;5.00;;;4.20;;
7047;SDS011;3565;53.254;10.352;2023-07-31T16:22:24;4.70;;;4.23;;
7047;SDS011;3565;53.254;10.352;2023-07-31T16:24:53;4.10;;;3.70;;
7047;SDS011;3565;53.254;10.352;2023-07-31T16:27:22;4.47;;;3.97;;
7047;SDS011;3565;53.254;10.352;2023-07-31T16:29:51;4.20;;;3.90;;
7047;SDS011;3565;53.254;10.352;2023-07-31T16:32:30;4.53;;;4.00;;
7047;SDS011;3565;53.254;10.352;2023-07-31T16:34:59;5.40;;;4.00;;
7047;SDS011;3565;53.254;10.352;2023-07-31T16:37:38;3.90;;;3.60;;
7047;SDS011;3565;53.254;10.352;2023-07-31T16:40:08;4.70;;;4.00;;
7047;SDS011;3565;53.254;10.352;2023-07-31T16:42:38;4.70;;;4.27;;
7047;SDS011;3565;53.254;10.352;2023-07-31T16:47:44;4.40;;;4.00;;
7047;SDS011;3565;53.254;10.352;2023-07-31T16:52:51;4.50;;;4.10;;
7047;SDS011;3565;53.254;10.352;2023-07-31T16:55:20;5.93;;;4.30;;
7047;SDS011;3565;53.254;10.352;2023-07-31T16:57:49;5.70;;;4.23;;
7047;SDS011;3565;53.254;10.352;2023-07-31T17:00:21;5.20;;;4.70;;
7047;SDS011;3565;53.254;10.352;2023-07-31T17:02:50;4.97;;;4.30;;
7047;SDS011;3565;53.254;10.352;2023-07-31T17:05:20;4.57;;;4.13;;
7047;SDS011;3565;53.254;10.352;2023-07-31T17:07:49;4.77;;;4.27;;
7047;SDS011;3565;53.254;10.352;2023-07-31T17:10:18;4.40;;;4.00;;
7047;SDS011;3565;53.254;10.352;2023-07-31T17:12:47;5.17;;;4.67;;
7047;SDS011;3565;53.254;10.352;2023-07-31T17:15:17;5.97;;;4.70;;
7047;SDS011;3565;53.254;10.352;2023-07-31T17:17:46;6.20;;;5.10;;
7047;SDS011;3565;53.254;10.352;2023-07-31T17:22:53;5.33;;;4.83;;
7047;SDS011;3565;53.254;10.352;2023-07-31T17:25:23;5.73;;;5.10;;
7047;SDS011;3565;53.254;10.352;2023-07-31T17:27:53;5.70;;;5.20;;
7047;SDS011;3565;53.254;10.352;2023-07-31T17:30:23;6.10;;;5.50;;
7047;SDS011;3565;53.254;10.352;2023-07-31T17:33:02;6.20;;;5.33;;
7047;SDS011;3565;53.254;10.352;2023-07-31T17:35:31;6.73;;;6.13;;
7047;SDS011;3565;53.254;10.352;2023-07-31T17:38:00;6.30;;;5.70;;
7047;SDS011;3565;53.254;10.352;2023-07-31T17:40:29;7.27;;;5.90;;
7047;SDS011;3565;53.254;10.352;2023-07-31T17:42:58;6.70;;;6.03;;